sensor_id;sensor_type;location;lat;lon;timestamp;P1;durP1;ratioP1;P2;durP2;ratioP2
69981;SDS011;57319;56.274;43.980;2023-11-19T00:00:42;18.13;;;7.53;;
69981;SDS011;57319;56.274;43.980;2023-11-19T00:03:08;13.57;;;6.88;;
69981;SDS011;57319;56.274;43.980;2023-11-19T00:05:33;18.55;;;8.07;;
69981;SDS011;57319;56.274;43.980;2023-11-19T00:07:59;16.80;;;7.97;;
69981;SDS011;57319;56.274;43.980;2023-11-19T00:10:25;16.23;;;7.45;;
69981;SDS011;57319;56.274;43.980;2023-11-19T00:12:50;28.48;;;7.40;;
69981;SDS011;57319;56.274;43.980;2023-11-19T00:15:16;12.77;;;7.50;;
69981;SDS011;57319;56.274;43.980;2023-11-19T00:17:47;12.27;;;6.85;;
69981;SDS011;57319;56.274;43.980;2023-11-19T00:20:14;17.10;;;7.18;;
69981;SDS011;57319;56.274;43.980;2023-11-19T00:22:41;11.38;;;5.93;;
69981;SDS011;57319;56.274;43.980;2023-11-19T00:25:07;14.07;;;6.40;;
69981;SDS011;57319;56.274;43.980;2023-11-19T00:27:33;19.98;;;7.10;;
69981;SDS011;57319;56.274;43.980;2023-11-19T00:29:59;13.48;;;6.65;;
69981;SDS011;57319;56.274;43.980;2023-11-19T00:32:25;16.23;;;7.18;;
69981;SDS011;57319;56.274;43.980;2023-11-19T00:34:50;15.50;;;7.38;;
69981;SDS011;57319;56.274;43.980;2023-11-19T00:37:16;12.43;;;6.72;;
69981;SDS011;57319;56.274;43.980;2023-11-19T00:39:42;24.27;;;8.25;;
69981;SDS011;57319;56.274;43.980;2023-11-19T00:42:08;23.13;;;7.43;;
69981;SDS011;57319;56.274;43.980;2023-11-19T00:44:37;21.70;;;7.93;;
69981;SDS011;57319;56.274;43.980;2023-11-19T00:47:03;12.55;;;6.82;;
69981;SDS011;57319;56.274;43.980;2023-11-19T00:49:30;12.38;;;6.35;;
69981;SDS011;57319;56.274;43.980;2023-11-19T00:51:58;18.98;;;7.55;;
69981;SDS011;57319;56.274;43.980;2023-11-19T00:54:24;21.63;;;8.07;;
69981;SDS011;57319;56.274;43.980;2023-11-19T00:56:51;16.48;;;6.97;;
69981;SDS011;57319;56.274;43.980;2023-11-19T00:59:17;19.45;;;6.63;;
69981;SDS011;57319;56.274;43.980;2023-11-19T01:01:43;22.52;;;7.55;;
69981;SDS011;57319;56.274;43.980;2023-11-19T01:04:09;16.50;;;6.72;;
69981;SDS011;57319;56.274;43.980;2023-11-19T01:06:34;17.65;;;7.55;;
69981;SDS011;57319;56.274;43.980;2023-11-19T01:09:00;15.23;;;8.00;;
69981;SDS011;57319;56.274;43.980;2023-11-19T01:11:26;13.43;;;7.40;;
69981;SDS011;57319;56.274;43.980;2023-11-19T01:13:52;18.88;;;8.13;;
69981;SDS011;57319;56.274;43.980;2023-11-19T01:16:18;23.80;;;8.13;;
69981;SDS011;57319;56.274;43.980;2023-11-19T01:18:44;19.67;;;7.97;;
69981;SDS011;57319;56.274;43.980;2023-11-19T01:21:11;14.25;;;7.03;;
69981;SDS011;57319;56.274;43.980;2023-11-19T01:23:37;24.65;;;8.35;;
69981;SDS011;57319;56.274;43.980;2023-11-19T01:26:03;15.45;;;8.52;;
69981;SDS011;57319;56.274;43.980;2023-11-19T01:28:30;23.92;;;8.30;;
69981;SDS011;57319;56.274;43.980;2023-11-19T01:30:56;13.70;;;7.60;;
69981;SDS011;57319;56.274;43.980;2023-11-19T01:33:22;12.40;;;6.88;;
69981;SDS011;57319;56.274;43.980;2023-11-19T01:35:47;21.25;;;7.50;;
69981;SDS011;57319;56.274;43.980;2023-11-19T01:38:13;18.52;;;7.82;;
69981;SDS011;57319;56.274;43.980;2023-11-19T01:40:39;23.63;;;7.63;;
69981;SDS011;57319;56.274;43.980;2023-11-19T01:43:05;11.75;;;6.35;;
69981;SDS011;57319;56.274;43.980;2023-11-19T01:45:30;17.05;;;8.13;;
69981;SDS011;57319;56.274;43.980;2023-11-19T01:47:56;10.65;;;7.15;;
69981;SDS011;57319;56.274;43.980;2023-11-19T01:50:23;15.93;;;7.90;;
69981;SDS011;57319;56.274;43.980;2023-11-19T01:52:52;15.85;;;7.75;;
69981;SDS011;57319;56.274;43.980;2023-11-19T01:55:19;17.42;;;8.10;;
69981;SDS011;57319;56.274;43.980;2023-11-19T01:57:46;14.05;;;7.95;;
69981;SDS011;57319;56.274;43.980;2023-11-19T02:00:14;19.92;;;7.43;;
69981;SDS011;57319;56.274;43.980;2023-11-19T02:02:41;14.07;;;7.22;;
69981;SDS011;57319;56.274;43.980;2023-11-19T02:05:08;15.88;;;7.30;;
69981;SDS011;57319;56.274;43.980;2023-11-19T02:07:36;27.65;;;7.97;;
69981;SDS011;57319;56.274;43.980;2023-11-19T02:10:01;12.20;;;7.38;;
69981;SDS011;57319;56.274;43.980;2023-11-19T02:12:27;12.07;;;7.30;;
69981;SDS011;57319;56.274;43.980;2023-11-19T02:14:54;20.65;;;8.13;;
69981;SDS011;57319;56.274;43.980;2023-11-19T02:17:29;15.60;;;8.10;;
69981;SDS011;57319;56.274;43.980;2023-11-19T02:19:59;17.58;;;7.97;;
69981;SDS011;57319;56.274;43.980;2023-11-19T02:22:34;15.02;;;6.95;;
69981;SDS011;57319;56.274;43.980;2023-11-19T02:25:00;15.85;;;7.63;;
69981;SDS011;57319;56.274;43.980;2023-11-19T02:30:03;17.58;;;8.10;;
69981;SDS011;57319;56.274;43.980;2023-11-19T02:32:33;17.02;;;7.25;;
69981;SDS011;57319;56.274;43.980;2023-11-19T02:35:01;11.68;;;7.30;;
69981;SDS011;57319;56.274;43.980;2023-11-19T02:37:28;10.55;;;6.13;;
69981;SDS011;57319;56.274;43.980;2023-11-19T02:39:53;20.85;;;7.57;;
69981;SDS011;57319;56.274;43.980;2023-11-19T02:42:19;14.43;;;6.03;;
69981;SDS011;57319;56.274;43.980;2023-11-19T02:44:44;17.98;;;7.68;;
69981;SDS011;57319;56.274;43.980;2023-11-19T02:47:11;16.35;;;6.50;;
69981;SDS011;57319;56.274;43.980;2023-11-19T02:49:36;15.35;;;7.13;;
69981;SDS011;57319;56.274;43.980;2023-11-19T02:52:02;21.33;;;4.97;;
69981;SDS011;57319;56.274;43.980;2023-11-19T02:54:30;10.88;;;6.43;;
69981;SDS011;57319;56.274;43.980;2023-11-19T02:57:00;14.32;;;6.45;;
69981;SDS011;57319;56.274;43.980;2023-11-19T02:59:27;10.85;;;6.93;;
69981;SDS011;57319;56.274;43.980;2023-11-19T03:01:53;15.52;;;6.38;;
69981;SDS011;57319;56.274;43.980;2023-11-19T03:04:20;15.80;;;6.50;;
69981;SDS011;57319;56.274;43.980;2023-11-19T03:06:46;15.45;;;6.43;;
69981;SDS011;57319;56.274;43.980;2023-11-19T03:09:12;18.80;;;6.03;;
69981;SDS011;57319;56.274;43.980;2023-11-19T03:11:37;12.40;;;6.68;;
69981;SDS011;57319;56.274;43.980;2023-11-19T03:14:03;14.57;;;6.47;;
69981;SDS011;57319;56.274;43.980;2023-11-19T03:16:29;21.02;;;5.85;;
69981;SDS011;57319;56.274;43.980;2023-11-19T03:18:55;7.90;;;5.90;;
69981;SDS011;57319;56.274;43.980;2023-11-19T03:21:28;10.07;;;5.65;;
69981;SDS011;57319;56.274;43.980;2023-11-19T03:23:54;10.70;;;5.97;;
69981;SDS011;57319;56.274;43.980;2023-11-19T03:26:20;18.65;;;7.13;;
69981;SDS011;57319;56.274;43.980;2023-11-19T03:28:47;23.13;;;5.93;;
69981;SDS011;57319;56.274;43.980;2023-11-19T03:31:12;23.20;;;7.28;;
69981;SDS011;57319;56.274;43.980;2023-11-19T03:33:38;18.15;;;7.30;;
69981;SDS011;57319;56.274;43.980;2023-11-19T03:36:03;16.60;;;6.22;;
69981;SDS011;57319;56.274;43.980;2023-11-19T03:38:30;20.90;;;6.30;;
69981;SDS011;57319;56.274;43.980;2023-11-19T03:40:55;21.45;;;5.95;;
69981;SDS011;57319;56.274;43.980;2023-11-19T03:43:21;21.13;;;6.95;;
69981;SDS011;57319;56.274;43.980;2023-11-19T03:45:46;17.02;;;6.63;;
69981;SDS011;57319;56.274;43.980;2023-11-19T03:48:13;16.25;;;6.20;;
69981;SDS011;57319;56.274;43.980;2023-11-19T03:50:41;12.35;;;6.07;;
69981;SDS011;57319;56.274;43.980;2023-11-19T03:53:07;12.45;;;6.60;;
69981;SDS011;57319;56.274;43.980;2023-11-19T03:55:33;16.08;;;7.28;;
69981;SDS011;57319;56.274;43.980;2023-11-19T03:57:58;9.50;;;6.38;;
69981;SDS011;57319;56.274;43.980;2023-11-19T04:00:24;14.70;;;7.05;;
69981;SDS011;57319;56.274;43.980;2023-11-19T04:02:50;9.95;;;5.78;;
69981;SDS011;57319;56.274;43.980;2023-11-19T04:05:15;12.90;;;6.25;;
69981;SDS011;57319;56.274;43.980;2023-11-19T04:07:43;15.68;;;7.65;;
69981;SDS011;57319;56.274;43.980;2023-11-19T04:10:09;13.45;;;7.03;;
69981;SDS011;57319;56.274;43.980;2023-11-19T04:12:35;15.85;;;6.32;;
69981;SDS011;57319;56.274;43.980;2023-11-19T04:15:01;5.53;;;4.28;;
69981;SDS011;57319;56.274;43.980;2023-11-19T04:17:26;25.50;;;8.40;;
69981;SDS011;57319;56.274;43.980;2023-11-19T04:19:52;20.50;;;7.80;;
69981;SDS011;57319;56.274;43.980;2023-11-19T04:22:17;12.85;;;7.57;;
69981;SDS011;57319;56.274;43.980;2023-11-19T04:24:43;17.00;;;7.35;;
69981;SDS011;57319;56.274;43.980;2023-11-19T04:27:10;16.83;;;7.45;;
69981;SDS011;57319;56.274;43.980;2023-11-19T04:29:36;15.77;;;8.02;;
69981;SDS011;57319;56.274;43.980;2023-11-19T04:32:01;16.98;;;7.82;;
69981;SDS011;57319;56.274;43.980;2023-11-19T04:34:27;20.55;;;7.35;;
69981;SDS011;57319;56.274;43.980;2023-11-19T04:36:53;16.70;;;8.57;;
69981;SDS011;57319;56.274;43.980;2023-11-19T04:39:19;20.75;;;8.88;;
69981;SDS011;57319;56.274;43.980;2023-11-19T04:41:50;13.85;;;6.53;;
69981;SDS011;57319;56.274;43.980;2023-11-19T04:44:20;14.35;;;8.40;;
69981;SDS011;57319;56.274;43.980;2023-11-19T04:46:45;28.65;;;8.52;;
69981;SDS011;57319;56.274;43.980;2023-11-19T04:49:11;28.25;;;8.23;;
69981;SDS011;57319;56.274;43.980;2023-11-19T04:51:42;16.58;;;8.95;;
69981;SDS011;57319;56.274;43.980;2023-11-19T04:54:09;19.00;;;8.68;;
69981;SDS011;57319;56.274;43.980;2023-11-19T04:56:35;22.95;;;9.20;;
69981;SDS011;57319;56.274;43.980;2023-11-19T04:59:02;23.20;;;8.20;;
69981;SDS011;57319;56.274;43.980;2023-11-19T05:01:28;13.63;;;7.57;;
69981;SDS011;57319;56.274;43.980;2023-11-19T05:03:54;17.35;;;7.40;;
69981;SDS011;57319;56.274;43.980;2023-11-19T05:06:25;19.08;;;7.82;;
69981;SDS011;57319;56.274;43.980;2023-11-19T05:08:55;16.13;;;8.68;;
69981;SDS011;57319;56.274;43.980;2023-11-19T05:11:21;21.48;;;8.48;;
69981;SDS011;57319;56.274;43.980;2023-11-19T05:13:47;13.65;;;7.55;;
69981;SDS011;57319;56.274;43.980;2023-11-19T05:16:13;19.80;;;7.88;;
69981;SDS011;57319;56.274;43.980;2023-11-19T05:18:42;18.67;;;7.70;;
69981;SDS011;57319;56.274;43.980;2023-11-19T05:21:07;28.65;;;8.07;;
69981;SDS011;57319;56.274;43.980;2023-11-19T05:23:33;23.60;;;8.38;;
69981;SDS011;57319;56.274;43.980;2023-11-19T05:26:02;16.77;;;8.05;;
69981;SDS011;57319;56.274;43.980;2023-11-19T05:28:28;16.98;;;8.20;;
69981;SDS011;57319;56.274;43.980;2023-11-19T05:30:54;16.52;;;6.03;;
69981;SDS011;57319;56.274;43.980;2023-11-19T05:33:20;14.25;;;7.30;;
69981;SDS011;57319;56.274;43.980;2023-11-19T05:35:46;19.95;;;7.20;;
69981;SDS011;57319;56.274;43.980;2023-11-19T05:38:12;28.73;;;9.05;;
69981;SDS011;57319;56.274;43.980;2023-11-19T05:40:37;14.60;;;7.18;;
69981;SDS011;57319;56.274;43.980;2023-11-19T05:43:04;30.70;;;9.70;;
69981;SDS011;57319;56.274;43.980;2023-11-19T05:45:30;16.17;;;7.72;;
69981;SDS011;57319;56.274;43.980;2023-11-19T05:47:57;26.98;;;9.38;;
69981;SDS011;57319;56.274;43.980;2023-11-19T05:50:22;18.30;;;8.30;;
69981;SDS011;57319;56.274;43.980;2023-11-19T05:52:49;40.13;;;8.80;;
69981;SDS011;57319;56.274;43.980;2023-11-19T05:55:15;20.27;;;8.52;;
69981;SDS011;57319;56.274;43.980;2023-11-19T05:57:41;36.78;;;10.55;;
69981;SDS011;57319;56.274;43.980;2023-11-19T06:00:07;27.58;;;8.93;;
69981;SDS011;57319;56.274;43.980;2023-11-19T06:02:34;19.15;;;6.40;;
69981;SDS011;57319;56.274;43.980;2023-11-19T06:04:59;15.10;;;8.63;;
69981;SDS011;57319;56.274;43.980;2023-11-19T06:07:26;20.88;;;8.57;;
69981;SDS011;57319;56.274;43.980;2023-11-19T06:09:52;16.63;;;7.55;;
69981;SDS011;57319;56.274;43.980;2023-11-19T06:12:17;23.02;;;7.45;;
69981;SDS011;57319;56.274;43.980;2023-11-19T06:14:43;19.58;;;8.40;;
69981;SDS011;57319;56.274;43.980;2023-11-19T06:17:08;22.75;;;8.35;;
69981;SDS011;57319;56.274;43.980;2023-11-19T06:19:36;10.95;;;6.72;;
69981;SDS011;57319;56.274;43.980;2023-11-19T06:22:03;22.95;;;7.55;;
69981;SDS011;57319;56.274;43.980;2023-11-19T06:24:29;16.90;;;6.85;;
69981;SDS011;57319;56.274;43.980;2023-11-19T06:26:54;18.30;;;7.65;;
69981;SDS011;57319;56.274;43.980;2023-11-19T06:29:20;17.63;;;6.80;;
69981;SDS011;57319;56.274;43.980;2023-11-19T06:31:46;14.52;;;5.97;;
69981;SDS011;57319;56.274;43.980;2023-11-19T06:34:13;22.33;;;6.90;;
69981;SDS011;57319;56.274;43.980;2023-11-19T06:36:39;25.92;;;7.00;;
69981;SDS011;57319;56.274;43.980;2023-11-19T06:39:05;24.52;;;7.70;;
69981;SDS011;57319;56.274;43.980;2023-11-19T06:41:31;12.02;;;7.78;;
69981;SDS011;57319;56.274;43.980;2023-11-19T06:43:56;15.38;;;6.55;;
69981;SDS011;57319;56.274;43.980;2023-11-19T06:46:22;17.40;;;8.15;;
69981;SDS011;57319;56.274;43.980;2023-11-19T06:48:47;14.40;;;5.90;;
69981;SDS011;57319;56.274;43.980;2023-11-19T06:51:13;13.82;;;8.40;;
69981;SDS011;57319;56.274;43.980;2023-11-19T06:53:38;23.83;;;8.93;;
69981;SDS011;57319;56.274;43.980;2023-11-19T06:56:06;24.45;;;9.55;;
69981;SDS011;57319;56.274;43.980;2023-11-19T06:58:42;25.60;;;9.63;;
69981;SDS011;57319;56.274;43.980;2023-11-19T07:01:07;16.77;;;9.40;;
69981;SDS011;57319;56.274;43.980;2023-11-19T07:03:34;24.85;;;9.35;;
69981;SDS011;57319;56.274;43.980;2023-11-19T07:06:00;21.83;;;10.23;;
69981;SDS011;57319;56.274;43.980;2023-11-19T07:08:25;19.35;;;9.27;;
69981;SDS011;57319;56.274;43.980;2023-11-19T07:10:52;32.90;;;10.20;;
69981;SDS011;57319;56.274;43.980;2023-11-19T07:13:18;17.23;;;8.77;;
69981;SDS011;57319;56.274;43.980;2023-11-19T07:15:44;26.00;;;10.50;;
69981;SDS011;57319;56.274;43.980;2023-11-19T07:18:10;26.23;;;11.50;;
69981;SDS011;57319;56.274;43.980;2023-11-19T07:20:37;32.95;;;10.70;;
69981;SDS011;57319;56.274;43.980;2023-11-19T07:23:03;17.75;;;8.07;;
69981;SDS011;57319;56.274;43.980;2023-11-19T07:25:29;21.67;;;8.07;;
69981;SDS011;57319;56.274;43.980;2023-11-19T07:27:54;28.70;;;7.60;;
69981;SDS011;57319;56.274;43.980;2023-11-19T07:30:21;20.17;;;8.30;;
69981;SDS011;57319;56.274;43.980;2023-11-19T07:32:47;22.52;;;7.47;;
69981;SDS011;57319;56.274;43.980;2023-11-19T07:35:13;20.80;;;7.40;;
69981;SDS011;57319;56.274;43.980;2023-11-19T07:37:41;12.15;;;5.43;;
69981;SDS011;57319;56.274;43.980;2023-11-19T07:40:07;6.00;;;4.13;;
69981;SDS011;57319;56.274;43.980;2023-11-19T07:42:33;9.93;;;5.45;;
69981;SDS011;57319;56.274;43.980;2023-11-19T07:44:59;26.85;;;7.50;;
69981;SDS011;57319;56.274;43.980;2023-11-19T07:47:24;22.63;;;6.28;;
69981;SDS011;57319;56.274;43.980;2023-11-19T07:49:50;14.90;;;5.22;;
69981;SDS011;57319;56.274;43.980;2023-11-19T07:52:16;14.35;;;5.38;;
69981;SDS011;57319;56.274;43.980;2023-11-19T07:54:41;13.32;;;4.78;;
69981;SDS011;57319;56.274;43.980;2023-11-19T07:57:07;10.65;;;5.47;;
69981;SDS011;57319;56.274;43.980;2023-11-19T07:59:32;8.52;;;4.50;;
69981;SDS011;57319;56.274;43.980;2023-11-19T08:01:58;6.65;;;3.80;;
69981;SDS011;57319;56.274;43.980;2023-11-19T08:04:23;7.55;;;4.30;;
69981;SDS011;57319;56.274;43.980;2023-11-19T08:06:49;5.63;;;3.25;;
69981;SDS011;57319;56.274;43.980;2023-11-19T08:09:14;16.33;;;4.47;;
69981;SDS011;57319;56.274;43.980;2023-11-19T08:11:40;11.27;;;4.93;;
69981;SDS011;57319;56.274;43.980;2023-11-19T08:14:06;17.92;;;6.28;;
69981;SDS011;57319;56.274;43.980;2023-11-19T08:16:32;9.68;;;5.03;;
69981;SDS011;57319;56.274;43.980;2023-11-19T08:18:57;14.25;;;5.38;;
69981;SDS011;57319;56.274;43.980;2023-11-19T08:21:24;11.35;;;5.47;;
69981;SDS011;57319;56.274;43.980;2023-11-19T08:23:49;15.23;;;5.60;;
69981;SDS011;57319;56.274;43.980;2023-11-19T08:26:15;14.38;;;4.05;;
69981;SDS011;57319;56.274;43.980;2023-11-19T08:28:41;8.13;;;5.32;;
69981;SDS011;57319;56.274;43.980;2023-11-19T08:31:06;11.20;;;5.65;;
69981;SDS011;57319;56.274;43.980;2023-11-19T08:33:32;12.82;;;5.43;;
69981;SDS011;57319;56.274;43.980;2023-11-19T08:35:57;13.30;;;5.00;;
69981;SDS011;57319;56.274;43.980;2023-11-19T08:38:24;14.93;;;5.93;;
69981;SDS011;57319;56.274;43.980;2023-11-19T08:40:50;5.47;;;4.47;;
69981;SDS011;57319;56.274;43.980;2023-11-19T08:43:15;20.38;;;5.40;;
69981;SDS011;57319;56.274;43.980;2023-11-19T08:45:41;12.70;;;5.47;;
69981;SDS011;57319;56.274;43.980;2023-11-19T08:48:06;14.48;;;6.30;;
69981;SDS011;57319;56.274;43.980;2023-11-19T08:50:32;17.35;;;5.78;;
69981;SDS011;57319;56.274;43.980;2023-11-19T08:52:57;15.95;;;7.00;;
69981;SDS011;57319;56.274;43.980;2023-11-19T08:55:23;10.65;;;6.28;;
69981;SDS011;57319;56.274;43.980;2023-11-19T08:57:49;18.23;;;6.72;;
69981;SDS011;57319;56.274;43.980;2023-11-19T09:00:14;36.97;;;7.15;;
69981;SDS011;57319;56.274;43.980;2023-11-19T09:02:40;20.55;;;8.30;;
69981;SDS011;57319;56.274;43.980;2023-11-19T09:05:06;25.85;;;9.32;;
69981;SDS011;57319;56.274;43.980;2023-11-19T09:07:34;2.40;;;2.20;;
69981;SDS011;57319;56.274;43.980;2023-11-19T09:10:00;17.38;;;5.55;;
69981;SDS011;57319;56.274;43.980;2023-11-19T09:12:26;12.05;;;6.75;;
69981;SDS011;57319;56.274;43.980;2023-11-19T09:14:51;21.40;;;8.77;;
69981;SDS011;57319;56.274;43.980;2023-11-19T09:17:17;25.00;;;8.05;;
69981;SDS011;57319;56.274;43.980;2023-11-19T09:19:43;28.13;;;8.38;;
69981;SDS011;57319;56.274;43.980;2023-11-19T09:22:09;24.23;;;8.10;;
69981;SDS011;57319;56.274;43.980;2023-11-19T09:24:34;21.80;;;9.30;;
69981;SDS011;57319;56.274;43.980;2023-11-19T09:27:00;19.02;;;8.90;;
69981;SDS011;57319;56.274;43.980;2023-11-19T09:29:25;16.23;;;8.43;;
69981;SDS011;57319;56.274;43.980;2023-11-19T09:31:51;13.75;;;6.60;;
69981;SDS011;57319;56.274;43.980;2023-11-19T09:34:17;15.35;;;8.20;;
69981;SDS011;57319;56.274;43.980;2023-11-19T09:36:42;24.60;;;9.25;;
69981;SDS011;57319;56.274;43.980;2023-11-19T09:39:12;17.63;;;9.02;;
69981;SDS011;57319;56.274;43.980;2023-11-19T09:41:43;12.35;;;6.85;;
69981;SDS011;57319;56.274;43.980;2023-11-19T09:44:10;19.67;;;8.85;;
69981;SDS011;57319;56.274;43.980;2023-11-19T09:46:37;18.38;;;8.45;;
69981;SDS011;57319;56.274;43.980;2023-11-19T09:49:06;16.80;;;7.97;;
69981;SDS011;57319;56.274;43.980;2023-11-19T09:51:34;18.92;;;8.07;;
69981;SDS011;57319;56.274;43.980;2023-11-19T09:54:01;16.73;;;7.38;;
69981;SDS011;57319;56.274;43.980;2023-11-19T09:56:27;15.40;;;6.72;;
69981;SDS011;57319;56.274;43.980;2023-11-19T09:58:55;19.98;;;8.30;;
69981;SDS011;57319;56.274;43.980;2023-11-19T10:01:20;13.15;;;7.72;;
69981;SDS011;57319;56.274;43.980;2023-11-19T10:03:46;19.55;;;8.43;;
69981;SDS011;57319;56.274;43.980;2023-11-19T10:06:12;23.00;;;8.35;;
69981;SDS011;57319;56.274;43.980;2023-11-19T10:08:41;22.17;;;9.18;;
69981;SDS011;57319;56.274;43.980;2023-11-19T10:11:07;17.95;;;9.10;;
69981;SDS011;57319;56.274;43.980;2023-11-19T10:13:36;24.13;;;9.63;;
69981;SDS011;57319;56.274;43.980;2023-11-19T10:16:08;20.63;;;9.15;;
69981;SDS011;57319;56.274;43.980;2023-11-19T10:18:36;21.05;;;7.78;;
69981;SDS011;57319;56.274;43.980;2023-11-19T10:21:04;30.92;;;9.35;;
69981;SDS011;57319;56.274;43.980;2023-11-19T10:23:31;25.25;;;10.25;;
69981;SDS011;57319;56.274;43.980;2023-11-19T10:26:03;19.35;;;8.52;;
69981;SDS011;57319;56.274;43.980;2023-11-19T10:28:50;22.02;;;7.05;;
69981;SDS011;57319;56.274;43.980;2023-11-19T10:31:16;13.93;;;8.17;;
69981;SDS011;57319;56.274;43.980;2023-11-19T10:33:43;12.40;;;7.03;;
69981;SDS011;57319;56.274;43.980;2023-11-19T10:36:12;22.00;;;8.55;;
69981;SDS011;57319;56.274;43.980;2023-11-19T10:38:38;24.02;;;9.02;;
69981;SDS011;57319;56.274;43.980;2023-11-19T10:41:05;24.80;;;9.75;;
69981;SDS011;57319;56.274;43.980;2023-11-19T10:43:31;33.97;;;9.07;;
69981;SDS011;57319;56.274;43.980;2023-11-19T10:46:12;17.85;;;9.80;;
69981;SDS011;57319;56.274;43.980;2023-11-19T10:48:39;27.33;;;8.00;;
69981;SDS011;57319;56.274;43.980;2023-11-19T10:51:05;17.17;;;7.90;;
69981;SDS011;57319;56.274;43.980;2023-11-19T10:53:38;16.75;;;7.80;;
69981;SDS011;57319;56.274;43.980;2023-11-19T10:56:10;29.08;;;7.43;;
69981;SDS011;57319;56.274;43.980;2023-11-19T10:58:36;12.50;;;6.38;;
69981;SDS011;57319;56.274;43.980;2023-11-19T11:01:09;16.50;;;6.68;;
69981;SDS011;57319;56.274;43.980;2023-11-19T11:03:39;15.20;;;5.85;;
69981;SDS011;57319;56.274;43.980;2023-11-19T11:06:05;16.05;;;6.28;;
69981;SDS011;57319;56.274;43.980;2023-11-19T11:08:31;19.33;;;6.43;;
69981;SDS011;57319;56.274;43.980;2023-11-19T11:11:01;16.13;;;7.15;;
69981;SDS011;57319;56.274;43.980;2023-11-19T11:13:29;15.30;;;6.78;;
69981;SDS011;57319;56.274;43.980;2023-11-19T11:15:56;17.15;;;6.80;;
69981;SDS011;57319;56.274;43.980;2023-11-19T11:18:23;24.48;;;6.35;;
69981;SDS011;57319;56.274;43.980;2023-11-19T11:20:57;15.98;;;6.32;;
69981;SDS011;57319;56.274;43.980;2023-11-19T11:29:01;28.42;;;7.13;;
69981;SDS011;57319;56.274;43.980;2023-11-19T11:31:38;27.67;;;7.20;;
69981;SDS011;57319;56.274;43.980;2023-11-19T11:39:35;20.50;;;6.82;;
69981;SDS011;57319;56.274;43.980;2023-11-19T11:47:23;20.25;;;6.43;;
69981;SDS011;57319;56.274;43.980;2023-11-19T11:49:48;16.80;;;5.95;;
69981;SDS011;57319;56.274;43.980;2023-11-19T11:52:16;25.42;;;5.70;;
69981;SDS011;57319;56.274;43.980;2023-11-19T11:54:42;12.15;;;5.85;;
69981;SDS011;57319;56.274;43.980;2023-11-19T11:57:08;12.98;;;5.63;;
69981;SDS011;57319;56.274;43.980;2023-11-19T12:02:05;7.93;;;4.25;;
69981;SDS011;57319;56.274;43.980;2023-11-19T12:04:36;11.13;;;5.28;;
69981;SDS011;57319;56.274;43.980;2023-11-19T12:07:03;14.88;;;5.80;;
69981;SDS011;57319;56.274;43.980;2023-11-19T12:09:30;15.10;;;5.53;;
69981;SDS011;57319;56.274;43.980;2023-11-19T12:20:00;14.90;;;5.63;;
69981;SDS011;57319;56.274;43.980;2023-11-19T12:22:26;9.07;;;4.90;;
69981;SDS011;57319;56.274;43.980;2023-11-19T12:24:53;7.93;;;4.25;;
69981;SDS011;57319;56.274;43.980;2023-11-19T12:27:19;11.77;;;5.10;;
69981;SDS011;57319;56.274;43.980;2023-11-19T12:29:48;10.32;;;5.28;;
69981;SDS011;57319;56.274;43.980;2023-11-19T12:32:14;16.70;;;4.70;;
69981;SDS011;57319;56.274;43.980;2023-11-19T12:34:39;22.95;;;5.57;;
69981;SDS011;57319;56.274;43.980;2023-11-19T12:37:05;11.30;;;4.85;;
69981;SDS011;57319;56.274;43.980;2023-11-19T12:39:31;1.60;;;1.60;;
69981;SDS011;57319;56.274;43.980;2023-11-19T12:41:57;15.40;;;4.75;;
69981;SDS011;57319;56.274;43.980;2023-11-19T12:44:26;8.30;;;4.25;;
69981;SDS011;57319;56.274;43.980;2023-11-19T12:47:01;6.75;;;4.90;;
69981;SDS011;57319;56.274;43.980;2023-11-19T12:52:01;18.75;;;4.70;;
69981;SDS011;57319;56.274;43.980;2023-11-19T12:54:37;20.00;;;5.65;;
69981;SDS011;57319;56.274;43.980;2023-11-19T12:57:03;8.63;;;5.18;;
69981;SDS011;57319;56.274;43.980;2023-11-19T12:59:33;18.70;;;5.97;;
69981;SDS011;57319;56.274;43.980;2023-11-19T13:01:59;30.08;;;5.75;;
69981;SDS011;57319;56.274;43.980;2023-11-19T13:04:29;26.73;;;5.50;;
69981;SDS011;57319;56.274;43.980;2023-11-19T13:06:58;13.68;;;6.30;;
69981;SDS011;57319;56.274;43.980;2023-11-19T13:09:27;32.20;;;6.35;;
69981;SDS011;57319;56.274;43.980;2023-11-19T13:11:54;17.85;;;6.38;;
69981;SDS011;57319;56.274;43.980;2023-11-19T13:14:21;22.30;;;5.82;;
69981;SDS011;57319;56.274;43.980;2023-11-19T13:16:48;9.77;;;5.70;;
69981;SDS011;57319;56.274;43.980;2023-11-19T13:19:14;15.60;;;6.22;;
69981;SDS011;57319;56.274;43.980;2023-11-19T13:21:41;13.73;;;6.50;;
69981;SDS011;57319;56.274;43.980;2023-11-19T13:24:07;20.52;;;6.53;;
69981;SDS011;57319;56.274;43.980;2023-11-19T13:26:33;9.38;;;5.97;;
69981;SDS011;57319;56.274;43.980;2023-11-19T13:29:00;24.17;;;6.28;;
69981;SDS011;57319;56.274;43.980;2023-11-19T13:31:25;20.55;;;6.10;;
69981;SDS011;57319;56.274;43.980;2023-11-19T13:33:51;34.78;;;7.30;;
69981;SDS011;57319;56.274;43.980;2023-11-19T13:36:16;12.82;;;6.05;;
69981;SDS011;57319;56.274;43.980;2023-11-19T13:38:42;11.55;;;5.30;;
69981;SDS011;57319;56.274;43.980;2023-11-19T13:41:09;18.70;;;5.93;;
69981;SDS011;57319;56.274;43.980;2023-11-19T13:43:36;21.98;;;6.72;;
69981;SDS011;57319;56.274;43.980;2023-11-19T13:46:02;12.82;;;5.18;;
69981;SDS011;57319;56.274;43.980;2023-11-19T13:48:28;23.17;;;5.40;;
69981;SDS011;57319;56.274;43.980;2023-11-19T13:50:54;14.38;;;5.03;;
69981;SDS011;57319;56.274;43.980;2023-11-19T13:53:21;14.27;;;5.38;;
69981;SDS011;57319;56.274;43.980;2023-11-19T13:55:47;15.27;;;4.68;;
69981;SDS011;57319;56.274;43.980;2023-11-19T13:58:15;12.13;;;5.82;;
69981;SDS011;57319;56.274;43.980;2023-11-19T14:00:41;28.10;;;6.03;;
69981;SDS011;57319;56.274;43.980;2023-11-19T14:03:08;21.52;;;6.38;;
69981;SDS011;57319;56.274;43.980;2023-11-19T14:05:35;18.95;;;6.65;;
69981;SDS011;57319;56.274;43.980;2023-11-19T14:08:01;9.07;;;5.53;;
69981;SDS011;57319;56.274;43.980;2023-11-19T14:10:26;12.38;;;5.70;;
69981;SDS011;57319;56.274;43.980;2023-11-19T14:12:52;19.55;;;5.90;;
69981;SDS011;57319;56.274;43.980;2023-11-19T14:15:17;11.27;;;5.65;;
69981;SDS011;57319;56.274;43.980;2023-11-19T14:17:43;15.10;;;6.13;;
69981;SDS011;57319;56.274;43.980;2023-11-19T14:20:09;12.38;;;6.20;;
69981;SDS011;57319;56.274;43.980;2023-11-19T14:22:39;10.70;;;6.38;;
69981;SDS011;57319;56.274;43.980;2023-11-19T14:25:05;15.13;;;6.35;;
69981;SDS011;57319;56.274;43.980;2023-11-19T14:27:35;23.08;;;7.15;;
69981;SDS011;57319;56.274;43.980;2023-11-19T14:30:07;11.55;;;5.05;;
69981;SDS011;57319;56.274;43.980;2023-11-19T14:32:36;23.27;;;6.25;;
69981;SDS011;57319;56.274;43.980;2023-11-19T14:35:02;29.60;;;5.70;;
69981;SDS011;57319;56.274;43.980;2023-11-19T14:37:29;15.18;;;5.65;;
69981;SDS011;57319;56.274;43.980;2023-11-19T14:39:56;17.58;;;6.18;;
69981;SDS011;57319;56.274;43.980;2023-11-19T14:42:23;11.23;;;5.70;;
69981;SDS011;57319;56.274;43.980;2023-11-19T14:44:50;12.98;;;6.38;;
69981;SDS011;57319;56.274;43.980;2023-11-19T14:47:18;20.75;;;6.45;;
69981;SDS011;57319;56.274;43.980;2023-11-19T14:49:45;11.15;;;5.57;;